CPX238 Details

Departure: Luis Munoz Marin International Airport (TJSJ)
Arrival: Miami International Airport (KMIA) at N/A
Route: ACONY3 PALDE FEKKO Y308 FOWEE FLIPR6
Notes:


Current Weather Information
TJSJ 250356Z 11005KT 10SM FEW025 28/25 A3005 RMK AO2 SLP175 T02830250 403220267 $
KMIA 250353Z 21004KT 10SM FEW030 FEW250 28/25 A2995 RMK AO2 SLP140 T02830250